Time;durP1;ratioP1;P1;durP2;ratioP2;P2;SDS_P1;SDS_P2;PMS_P1;PMS_P2;Temp;Humidity;BMP_temperature;BMP_pressure;BME280_temperature;BME280_humidity;BME280_pressure;Samples;Min_cycle;Max_cycle;Signal;HPM_P1;HPM_P2
2023/11/14 00:01:54;;;;;;;0.75;0.70;;;;;;;13.58;100.00;95981.19;5041718;28;20052;-76
2023/11/14 00:04:20;;;;;;;2.42;0.80;;;;;;;13.54;100.00;95992.22;5028518;28;20037;-75
2023/11/14 00:06:45;;;;;;;1.38;0.70;;;;;;;13.47;100.00;95986.75;5041168;28;20198;-75
2023/11/14 00:09:11;;;;;;;1.65;1.10;;;;;;;13.42;100.00;95989.94;5033618;28;20034;-73
2023/11/14 00:11:36;;;;;;;2.92;0.70;;;;;;;13.46;100.00;95987.16;5041610;28;20140;-74
2023/11/14 00:14:03;;;;;;;1.00;0.70;;;;;;;13.42;100.00;95991.91;5036909;28;20049;-74
2023/11/14 00:16:29;;;;;;;1.25;0.70;;;;;;;13.41;100.00;95984.81;5031224;28;20098;-77
2023/11/14 00:18:55;;;;;;;1.58;0.75;;;;;;;13.37;100.00;95990.34;5031631;28;20044;-76
2023/11/14 00:21:21;;;;;;;1.38;0.60;;;;;;;13.44;100.00;96000.53;5035370;28;20128;-75
2023/11/14 00:23:46;;;;;;;5.85;0.70;;;;;;;13.40;100.00;95981.31;5050998;28;20071;-74
2023/11/14 00:26:12;;;;;;;1.20;0.70;;;;;;;13.40;100.00;96003.31;5042979;28;20074;-73
2023/11/14 00:28:37;;;;;;;1.30;0.70;;;;;;;13.38;100.00;96005.69;5039556;28;20041;-74
2023/11/14 00:31:03;;;;;;;2.08;0.70;;;;;;;13.32;100.00;96018.25;5051799;28;20335;-74
2023/11/14 00:33:28;;;;;;;2.90;0.90;;;;;;;13.29;100.00;96005.28;5028873;28;20055;-74
2023/11/14 00:35:55;;;;;;;4.40;0.90;;;;;;;13.29;100.00;96008.03;5029777;28;20044;-75
2023/11/14 00:38:20;;;;;;;2.67;1.00;;;;;;;13.26;100.00;96004.13;5015694;28;20045;-75
2023/11/14 00:40:46;;;;;;;3.53;0.82;;;;;;;13.26;100.00;96009.63;5027974;28;20039;-76
2023/11/14 00:43:11;;;;;;;3.10;0.90;;;;;;;13.20;100.00;96003.78;5027592;28;20514;-76
2023/11/14 00:45:36;;;;;;;2.20;0.88;;;;;;;13.15;100.00;96006.94;5035225;28;20099;-76
2023/11/14 00:48:02;;;;;;;1.23;0.73;;;;;;;13.18;100.00;96002.59;5028649;28;20045;-74
2023/11/14 00:50:28;;;;;;;3.22;1.00;;;;;;;13.18;100.00;96000.63;5031498;28;20041;-75
2023/11/14 00:52:53;;;;;;;2.75;0.80;;;;;;;13.19;100.00;96007.69;5032865;28;20050;-75
2023/11/14 00:55:19;;;;;;;2.17;0.73;;;;;;;13.27;100.00;95999.41;5024824;28;20037;-75
2023/11/14 00:57:44;;;;;;;1.23;0.52;;;;;;;13.30;100.00;95993.88;5022676;28;20044;-75
2023/11/14 01:00:11;;;;;;;0.77;0.70;;;;;;;13.33;100.00;96008.84;5039561;28;20033;-75
2023/11/14 01:02:39;;;;;;;2.20;0.77;;;;;;;13.34;100.00;96015.91;5021106;28;20524;-75
2023/11/14 01:05:05;;;;;;;2.88;0.60;;;;;;;13.26;100.00;96019.84;5024785;28;20507;-74
2023/11/14 01:07:30;;;;;;;1.08;0.60;;;;;;;13.19;100.00;96034.41;5015527;28;20048;-75
2023/11/14 01:09:56;;;;;;;1.80;0.70;;;;;;;13.15;100.00;96037.19;5029832;28;20045;-74
2023/11/14 01:12:22;;;;;;;3.42;0.70;;;;;;;13.14;100.00;96043.88;5032316;28;20535;-73
2023/11/14 01:14:47;;;;;;;2.28;0.65;;;;;;;13.06;100.00;96031.31;5040598;28;20056;-75
2023/11/14 01:17:13;;;;;;;0.77;0.60;;;;;;;13.06;100.00;96038.81;5026247;28;20575;-75
2023/11/14 01:19:40;;;;;;;1.38;0.60;;;;;;;13.01;100.00;96038.00;5031893;28;20041;-75
2023/11/14 01:22:05;;;;;;;2.55;0.70;;;;;;;13.03;100.00;96050.59;5017848;28;20065;-75
2023/11/14 01:24:31;;;;;;;1.60;0.80;;;;;;;13.04;100.00;96060.41;5047049;28;20073;-75
2023/11/14 01:26:56;;;;;;;2.55;0.60;;;;;;;13.05;100.00;96054.50;5021698;28;20448;-77
2023/11/14 01:29:21;;;;;;;1.35;0.77;;;;;;;13.01;100.00;96046.25;5015632;28;20277;-75
2023/11/14 01:31:47;;;;;;;1.08;0.63;;;;;;;12.96;100.00;96041.19;5019855;28;20554;-76
2023/11/14 01:34:12;;;;;;;2.47;0.80;;;;;;;12.96;100.00;96041.19;5015333;28;20049;-77
2023/11/14 01:36:38;;;;;;;1.60;0.60;;;;;;;12.95;100.00;96036.88;5028696;28;20550;-76
2023/11/14 01:39:05;;;;;;;1.83;0.70;;;;;;;12.93;100.00;96041.22;5017650;28;20466;-77
2023/11/14 01:41:30;;;;;;;1.65;0.70;;;;;;;12.92;100.00;96045.13;5027491;28;20037;-78
2023/11/14 01:43:56;;;;;;;1.00;0.60;;;;;;;12.90;100.00;96050.25;5020455;28;20575;-76
2023/11/14 01:46:21;;;;;;;2.90;0.60;;;;;;;12.94;100.00;96051.00;5017846;28;20057;-78
2023/11/14 01:48:50;;;;;;;1.00;0.70;;;;;;;12.90;100.00;96067.50;5023501;28;20141;-77
2023/11/14 01:51:17;;;;;;;2.08;0.70;;;;;;;12.90;100.00;96069.47;5028533;28;20044;-76
2023/11/14 01:53:42;;;;;;;0.98;0.70;;;;;;;12.89;100.00;96065.16;5024186;28;20076;-78
2023/11/14 01:56:10;;;;;;;1.08;0.60;;;;;;;12.92;100.00;96083.59;5021352;28;20061;-73
2023/11/14 01:58:36;;;;;;;1.52;0.57;;;;;;;12.91;100.00;96082.81;5031145;28;20049;-74
2023/11/14 02:01:03;;;;;;;1.40;0.63;;;;;;;12.87;100.00;96081.25;5055909;28;20044;-74
2023/11/14 02:03:29;;;;;;;0.68;0.55;;;;;;;12.80;100.00;96085.59;5028956;28;20041;-75
2023/11/14 02:05:55;;;;;;;2.53;0.70;;;;;;;12.78;100.00;96076.16;5040446;28;20029;-75
2023/11/14 02:08:21;;;;;;;0.50;0.40;;;;;;;12.79;100.00;96064.00;5042525;28;20057;-75
2023/11/14 02:10:46;;;;;;;2.00;0.70;;;;;;;12.81;100.00;96056.16;5069143;28;20049;-77
2023/11/14 02:13:13;;;;;;;2.65;0.73;;;;;;;12.72;100.00;96069.53;5020301;28;20411;-74
2023/11/14 02:15:41;;;;;;;0.68;0.50;;;;;;;12.66;100.00;96066.41;5044855;28;20042;-73
2023/11/14 02:18:08;;;;;;;0.95;0.50;;;;;;;12.65;100.00;96075.03;5040001;28;20084;-75
2023/11/14 02:20:34;;;;;;;2.83;0.70;;;;;;;12.60;100.00;96092.69;5030892;28;20087;-75
2023/11/14 02:23:02;;;;;;;1.05;0.60;;;;;;;12.58;100.00;96093.06;5030939;28;20091;-77
2023/11/14 02:25:27;;;;;;;4.97;0.65;;;;;;;12.59;100.00;96096.63;5030588;28;20040;-75
2023/11/14 02:27:52;;;;;;;3.38;0.60;;;;;;;12.56;100.00;96091.91;5043289;28;20402;-75
2023/11/14 02:30:18;;;;;;;3.47;1.00;;;;;;;12.56;100.00;96113.88;5030160;28;20070;-75
2023/11/14 02:32:43;;;;;;;1.85;0.70;;;;;;;12.38;100.00;96108.41;5043807;28;20498;-75
2023/11/14 02:35:09;;;;;;;1.55;0.98;;;;;;;12.13;100.00;96102.91;5033441;28;20100;-75
2023/11/14 02:37:34;;;;;;;2.63;0.50;;;;;;;11.93;100.00;96070.34;5033625;28;20454;-73
2023/11/14 02:40:00;;;;;;;1.30;0.57;;;;;;;11.75;100.00;96091.47;5040116;28;20148;-75
2023/11/14 02:42:25;;;;;;;1.00;0.70;;;;;;;11.63;100.00;96100.81;5030506;28;20037;-75
2023/11/14 02:44:51;;;;;;;1.20;0.95;;;;;;;11.65;100.00;96093.81;5026012;28;20069;-74
2023/11/14 02:47:17;;;;;;;0.95;0.70;;;;;;;11.65;100.00;96098.50;5029089;28;20140;-71
2023/11/14 02:49:57;;;;;;;0.70;0.60;;;;;;;11.60;100.00;96099.66;5029015;28;20038;-72
2023/11/14 02:52:23;;;;;;;2.10;0.70;;;;;;;11.53;100.00;96109.81;5018298;28;21021;-72
2023/11/14 02:54:50;;;;;;;2.95;0.60;;;;;;;11.56;100.00;96115.31;5044173;28;20051;-72
2023/11/14 02:57:16;;;;;;;1.77;0.60;;;;;;;11.52;100.00;96111.78;5025418;28;20485;-73
2023/11/14 02:59:41;;;;;;;5.15;0.98;;;;;;;11.49;100.00;96101.59;5028783;28;20044;-74
2023/11/14 03:02:07;;;;;;;1.58;0.60;;;;;;;11.52;100.00;96089.81;5021224;28;20107;-73
2023/11/14 03:04:33;;;;;;;1.50;0.73;;;;;;;11.46;100.00;96105.09;5021930;28;20077;-74
2023/11/14 03:07:00;;;;;;;0.65;0.50;;;;;;;11.52;100.00;96114.50;5038683;28;20507;-73
2023/11/14 03:09:26;;;;;;;1.35;0.82;;;;;;;11.50;100.00;96119.59;5041172;28;20083;-74
2023/11/14 03:11:51;;;;;;;1.20;0.70;;;;;;;11.44;100.00;96105.47;5051569;28;20053;-74
2023/11/14 03:14:16;;;;;;;2.53;0.90;;;;;;;11.44;100.00;96107.44;5038659;28;20502;-75
2023/11/14 03:16:42;;;;;;;2.50;0.70;;;;;;;11.44;100.00;96105.47;5050817;28;20105;-73
2023/11/14 03:19:07;;;;;;;1.17;0.70;;;;;;;11.31;100.00;96109.75;5047242;28;20069;-75
2023/11/14 03:21:33;;;;;;;0.73;0.70;;;;;;;11.28;100.00;96111.28;5027902;28;20575;-75
2023/11/14 03:23:58;;;;;;;0.98;0.50;;;;;;;11.25;100.00;96105.78;5033604;28;20051;-74
2023/11/14 03:26:31;;;;;;;0.70;0.60;;;;;;;11.23;100.00;96103.44;5036993;28;20052;-75
2023/11/14 03:28:57;;;;;;;1.10;0.60;;;;;;;11.22;100.00;96104.63;5033172;28;20098;-75
2023/11/14 03:31:23;;;;;;;1.60;0.90;;;;;;;11.20;100.00;96122.59;5025404;28;20057;-76
2023/11/14 03:33:48;;;;;;;2.08;0.50;;;;;;;11.13;100.00;96150.78;5036471;28;20048;-76
2023/11/14 03:36:13;;;;;;;2.72;0.60;;;;;;;11.11;100.00;96161.34;5018875;28;20042;-75
2023/11/14 03:38:39;;;;;;;2.63;0.77;;;;;;;11.09;100.00;96161.72;5021959;28;20046;-74
2023/11/14 03:41:05;;;;;;;0.77;0.63;;;;;;;11.07;100.00;96157.78;5041536;28;20094;-72
2023/11/14 03:43:30;;;;;;;0.98;0.60;;;;;;;11.08;100.00;96142.94;5028948;28;20053;-75
2023/11/14 03:45:55;;;;;;;0.55;0.50;;;;;;;11.13;100.00;96156.28;5036734;28;20047;-75
2023/11/14 03:48:21;;;;;;;0.73;0.43;;;;;;;10.96;100.00;96173.38;5032434;28;20276;-76
2023/11/14 03:50:47;;;;;;;3.05;0.68;;;;;;;11.02;100.00;96177.31;5034003;28;20073;-75
2023/11/14 03:53:12;;;;;;;1.92;0.77;;;;;;;11.03;100.00;96182.44;5026602;28;20072;-75
2023/11/14 03:55:38;;;;;;;0.90;0.50;;;;;;;11.05;100.00;96193.00;5028079;28;20045;-75
2023/11/14 03:58:03;;;;;;;3.13;0.80;;;;;;;10.97;100.00;96203.16;5031626;28;20041;-74
2023/11/14 04:00:29;;;;;;;1.13;0.50;;;;;;;10.93;100.00;96207.00;5023149;28;20045;-74
2023/11/14 04:02:55;;;;;;;0.50;0.50;;;;;;;10.92;100.00;96189.78;5039716;28;20083;-74
2023/11/14 04:05:20;;;;;;;0.82;0.60;;;;;;;10.87;100.00;96198.38;5007987;28;20068;-74
2023/11/14 04:07:46;;;;;;;0.82;0.70;;;;;;;10.74;100.00;96219.81;5035201;28;20051;-74
2023/11/14 04:10:12;;;;;;;0.73;0.50;;;;;;;10.85;100.00;96215.19;5026243;28;20611;-76
2023/11/14 04:12:38;;;;;;;4.13;0.50;;;;;;;10.76;100.00;96209.25;5030104;28;20055;-75
2023/11/14 04:15:04;;;;;;;4.30;0.80;;;;;;;10.82;100.00;96190.50;5020237;28;20128;-74
2023/11/14 04:17:30;;;;;;;1.65;0.63;;;;;;;10.68;100.00;96202.94;5032416;28;20052;-78
2023/11/14 04:19:55;;;;;;;0.70;0.60;;;;;;;10.78;100.00;96215.13;5051854;28;20060;-74
2023/11/14 04:22:21;;;;;;;0.80;0.55;;;;;;;10.67;100.00;96211.53;5058397;28;20615;-76
2023/11/14 04:24:46;;;;;;;0.60;0.60;;;;;;;10.73;100.00;96207.25;5034736;28;20116;-76
2023/11/14 04:27:12;;;;;;;1.13;0.75;;;;;;;10.76;100.00;96219.44;5044497;23;20136;-69
2023/11/14 04:29:37;;;;;;;1.95;0.80;;;;;;;10.70;100.00;96229.94;5002564;28;20053;-69
2023/11/14 04:32:03;;;;;;;1.17;0.77;;;;;;;10.62;100.00;96229.09;5017186;28;20344;-68
2023/11/14 04:34:28;;;;;;;2.05;0.57;;;;;;;10.71;100.00;96250.69;5005691;28;20050;-71
2023/11/14 04:36:54;;;;;;;2.15;0.60;;;;;;;10.70;100.00;96255.38;5015441;28;20049;-71
2023/11/14 04:39:19;;;;;;;1.27;0.60;;;;;;;10.63;100.00;96251.81;5022992;28;20045;-70
2023/11/14 04:41:45;;;;;;;0.80;0.60;;;;;;;10.73;100.00;96269.47;5017737;28;20458;-71
2023/11/14 04:44:13;;;;;;;1.05;0.50;;;;;;;10.58;100.00;96287.75;5025801;28;20061;-70
2023/11/14 04:46:44;;;;;;;12.48;0.70;;;;;;;10.64;100.00;96283.47;5021261;28;20053;-70
2023/11/14 04:49:12;;;;;;;2.40;0.70;;;;;;;10.62;100.00;96286.59;5026428;28;20133;-69
2023/11/14 04:51:37;;;;;;;0.93;0.80;;;;;;;10.56;100.00;96262.69;5024323;28;20044;-69
2023/11/14 04:54:02;;;;;;;0.95;0.70;;;;;;;10.52;100.00;96284.56;5028525;28;20531;-71
2023/11/14 04:56:29;;;;;;;3.97;0.63;;;;;;;10.43;100.00;96284.06;5025568;28;20049;-70
2023/11/14 04:58:54;;;;;;;3.75;0.68;;;;;;;10.57;100.00;96288.88;5026270;28;20104;-68
2023/11/14 05:01:21;;;;;;;0.90;0.60;;;;;;;10.61;100.00;96289.72;5025343;28;20591;-68
2023/11/14 05:03:46;;;;;;;0.85;0.63;;;;;;;10.63;100.00;96304.63;5027900;28;20042;-69
2023/11/14 05:06:12;;;;;;;2.58;0.80;;;;;;;10.66;100.00;96300.31;5015342;28;20045;-70
2023/11/14 05:08:37;;;;;;;1.45;1.00;;;;;;;10.66;100.00;96303.88;5025787;28;20072;-69
2023/11/14 05:11:04;;;;;;;2.05;0.70;;;;;;;10.67;100.00;96319.13;5020461;28;20042;-69
2023/11/14 05:13:30;;;;;;;1.70;0.80;;;;;;;10.58;100.00;96304.94;5021352;28;20048;-69
2023/11/14 05:15:57;;;;;;;3.25;0.75;;;;;;;10.53;100.00;96291.59;5034796;28;20410;-69
2023/11/14 05:18:22;;;;;;;3.33;0.77;;;;;;;10.38;100.00;96290.66;5022585;28;20049;-68
2023/11/14 05:20:48;;;;;;;1.30;0.68;;;;;;;10.45;100.00;96300.91;5027822;28;20446;-68
2023/11/14 05:23:15;;;;;;;3.05;0.90;;;;;;;10.41;100.00;96305.56;5031072;28;20538;-69
2023/11/14 05:25:41;;;;;;;1.30;0.80;;;;;;;10.35;100.00;96299.63;5022559;28;20076;-69
2023/11/14 05:28:06;;;;;;;2.30;0.80;;;;;;;10.24;100.00;96306.91;5024536;28;20505;-68
2023/11/14 05:30:32;;;;;;;2.05;0.90;;;;;;;10.31;100.00;96348.06;5031484;28;20541;-69
2023/11/14 05:32:57;;;;;;;3.28;1.00;;;;;;;10.42;100.00;96331.78;5030885;28;20048;-69
2023/11/14 05:35:22;;;;;;;1.52;0.57;;;;;;;10.35;100.00;96335.22;5026017;28;20049;-69
2023/11/14 05:37:48;;;;;;;2.45;0.80;;;;;;;10.29;100.00;96320.25;5032622;28;20110;-69
2023/11/14 05:40:13;;;;;;;2.70;0.80;;;;;;;10.47;100.00;96328.69;5037725;28;20045;-70
2023/11/14 05:42:39;;;;;;;1.30;0.90;;;;;;;10.27;100.00;96319.84;5041716;28;20123;-71
2023/11/14 05:45:06;;;;;;;3.80;1.50;;;;;;;10.15;100.00;96318.13;5018313;28;20395;-69
2023/11/14 05:47:32;;;;;;;4.38;1.85;;;;;;;10.22;100.00;96317.44;5026453;28;20734;-69
2023/11/14 05:49:57;;;;;;;4.45;1.80;;;;;;;10.15;100.00;96312.66;5037797;28;20049;-69
2023/11/14 05:52:23;;;;;;;2.33;1.08;;;;;;;10.20;100.00;96317.81;5033431;28;20068;-68
2023/11/14 05:54:48;;;;;;;1.98;1.13;;;;;;;10.16;100.00;96314.25;5033269;28;20083;-70
2023/11/14 05:57:13;;;;;;;5.93;2.75;;;;;;;10.09;100.00;96319.63;5023491;28;20068;-70
2023/11/14 05:59:39;;;;;;;1.17;0.57;;;;;;;10.18;100.00;96313.88;5023480;28;20041;-71
2023/11/14 06:02:07;;;;;;;3.25;1.00;;;;;;;10.12;100.00;96313.44;5033079;28;20616;-70
2023/11/14 06:04:35;;;;;;;2.63;0.93;;;;;;;10.20;100.00;96317.03;5023354;28;20049;-70
2023/11/14 06:07:00;;;;;;;0.60;0.40;;;;;;;10.31;100.00;96320.69;5037906;28;20060;-70
2023/11/14 06:09:26;;;;;;;1.98;0.70;;;;;;;10.30;100.00;96346.47;5035645;28;20033;-70
2023/11/14 06:11:51;;;;;;;2.10;0.80;;;;;;;10.23;100.00;96365.56;5025302;28;20033;-69
2023/11/14 06:14:16;;;;;;;1.30;0.52;;;;;;;10.01;100.00;96384.44;5029893;28;20048;-68
2023/11/14 06:16:42;;;;;;;2.38;0.65;;;;;;;9.70;100.00;96380.09;5029444;28;20053;-69
2023/11/14 06:19:07;;;;;;;1.10;0.60;;;;;;;9.71;100.00;96390.66;5033786;28;20047;-70
2023/11/14 06:21:33;;;;;;;1.02;0.50;;;;;;;9.59;100.00;96392.81;5038347;28;20621;-69
2023/11/14 06:23:58;;;;;;;0.82;0.60;;;;;;;9.33;100.00;96399.84;5054151;28;20049;-69
2023/11/14 06:26:24;;;;;;;3.67;0.90;;;;;;;9.21;100.00;96425.41;5031626;28;20052;-69
2023/11/14 06:28:49;;;;;;;1.95;0.68;;;;;;;9.07;100.00;96428.66;5032783;28;20419;-69
2023/11/14 06:31:14;;;;;;;2.45;0.95;;;;;;;9.03;100.00;96437.97;5023835;28;20052;-69
2023/11/14 06:33:40;;;;;;;2.42;0.85;;;;;;;8.95;100.00;96440.56;5029726;28;20124;-70
2023/11/14 06:36:06;;;;;;;2.40;0.90;;;;;;;8.84;100.00;96438.78;5027932;28;20206;-69
2023/11/14 06:38:31;;;;;;;5.95;0.90;;;;;;;8.69;100.00;96429.53;5024004;28;20494;-69
2023/11/14 06:40:57;;;;;;;2.70;0.80;;;;;;;8.62;100.00;96446.53;5028527;28;20136;-69
2023/11/14 06:43:22;;;;;;;3.03;0.80;;;;;;;8.56;100.00;96464.38;5026051;28;20495;-69
2023/11/14 06:45:49;;;;;;;3.67;0.90;;;;;;;8.46;100.00;96484.81;5027490;28;20483;-68
2023/11/14 06:48:15;;;;;;;1.95;0.90;;;;;;;8.50;100.00;96502.09;5018650;28;20041;-67
2023/11/14 06:50:40;;;;;;;2.95;1.50;;;;;;;8.53;100.00;96511.50;5026882;28;20056;-68
2023/11/14 06:53:09;;;;;;;4.85;1.90;;;;;;;8.40;100.00;96519.00;5017575;28;20117;-68
2023/11/14 06:55:34;;;;;;;2.40;0.90;;;;;;;8.34;100.00;96545.75;5030659;28;20121;-70
2023/11/14 06:58:00;;;;;;;2.45;0.90;;;;;;;8.34;100.00;96540.31;5038366;28;20434;-70
2023/11/14 07:00:25;;;;;;;1.63;0.88;;;;;;;8.39;100.00;96525.56;5029880;28;20172;-70
2023/11/14 07:02:51;;;;;;;4.85;0.85;;;;;;;8.39;100.00;96542.75;5042068;28;20049;-70
2023/11/14 07:05:18;;;;;;;4.80;0.98;;;;;;;8.41;100.00;96545.13;5038866;28;20049;-69
2023/11/14 07:07:44;;;;;;;3.92;0.88;;;;;;;8.39;100.00;96556.41;5021662;28;20523;-70
2023/11/14 07:10:11;;;;;;;12.85;5.53;;;;;;;8.51;100.00;96573.84;5029873;28;20048;-69
2023/11/14 07:12:36;;;;;;;1.88;0.80;;;;;;;8.52;100.00;96565.31;5017219;28;20069;-69
2023/11/14 07:15:06;;;;;;;3.25;1.02;;;;;;;8.50;100.00;96559.41;5035280;28;20584;-70
2023/11/14 07:17:35;;;;;;;4.35;1.30;;;;;;;8.48;100.00;96564.44;5028924;28;20048;-70
2023/11/14 07:20:01;;;;;;;5.93;1.30;;;;;;;8.56;100.00;96570.84;5028754;28;20046;-69
2023/11/14 07:22:27;;;;;;;5.88;1.08;;;;;;;8.50;100.00;96589.44;5026210;28;20045;-69
2023/11/14 07:24:53;;;;;;;4.68;1.40;;;;;;;8.49;100.00;96595.25;5035830;28;20384;-69
2023/11/14 07:27:18;;;;;;;6.63;1.50;;;;;;;8.59;100.00;96591.97;5023506;28;20049;-68
2023/11/14 07:29:46;;;;;;;5.63;1.17;;;;;;;8.55;100.00;96594.63;5029822;28;20507;-68
2023/11/14 07:32:11;;;;;;;9.73;5.13;;;;;;;8.57;100.00;96588.78;5025683;28;20072;-69
2023/11/14 07:34:37;;;;;;;3.17;1.45;;;;;;;8.58;100.00;96601.28;5029471;28;20081;-69
2023/11/14 07:37:02;;;;;;;3.95;0.95;;;;;;;8.61;100.00;96597.88;5028039;28;20049;-69
2023/11/14 07:39:28;;;;;;;4.97;1.00;;;;;;;8.69;100.00;96607.00;5031316;28;20056;-69
2023/11/14 07:41:53;;;;;;;8.25;1.65;;;;;;;8.58;100.00;96576.72;5027599;28;20096;-69
2023/11/14 07:44:19;;;;;;;7.45;1.70;;;;;;;8.61;100.00;96587.72;5016142;28;20045;-67
2023/11/14 07:46:44;;;;;;;4.60;1.60;;;;;;;8.61;100.00;96578.75;5023575;28;20049;-67
2023/11/14 07:49:10;;;;;;;8.98;1.55;;;;;;;8.59;100.00;96578.31;5017983;28;20535;-68
2023/11/14 07:51:36;;;;;;;6.72;1.05;;;;;;;8.70;100.00;96573.88;5032705;28;20052;-67
2023/11/14 07:54:01;;;;;;;2.75;1.15;;;;;;;8.67;100.00;96574.59;5028669;28;20052;-69
2023/11/14 07:56:27;;;;;;;2.42;1.10;;;;;;;8.61;100.00;96570.56;5019275;28;20041;-69
2023/11/14 07:58:53;;;;;;;4.18;1.20;;;;;;;8.63;100.00;96568.25;5034270;28;20045;-69
2023/11/14 08:01:18;;;;;;;4.15;0.90;;;;;;;8.73;100.00;96575.09;5016343;28;20725;-69
2023/11/14 08:03:44;;;;;;;4.68;1.00;;;;;;;8.78;100.00;96575.59;5021383;28;20223;-69
2023/11/14 08:06:10;;;;;;;2.20;0.80;;;;;;;8.79;100.00;96571.72;5025522;28;20049;-69
2023/11/14 08:08:37;;;;;;;3.38;1.30;;;;;;;8.66;100.00;96570.28;5034187;28;20041;-69
2023/11/14 08:11:03;;;;;;;3.25;1.00;;;;;;;8.71;100.00;96580.91;5031431;28;20045;-70
2023/11/14 08:13:28;;;;;;;2.60;0.80;;;;;;;8.74;100.00;96595.81;5029104;28;20102;-70
2023/11/14 08:15:54;;;;;;;4.22;1.20;;;;;;;8.73;100.00;96605.13;5029501;28;20042;-70
2023/11/14 08:18:19;;;;;;;4.07;1.38;;;;;;;8.66;100.00;96611.25;5023639;28;20037;-69
2023/11/14 08:20:44;;;;;;;4.22;1.00;;;;;;;8.66;100.00;96600.31;5028294;28;20046;-70
2023/11/14 08:23:10;;;;;;;4.20;1.17;;;;;;;8.71;100.00;96602.75;5030672;28;20077;-70
2023/11/14 08:25:35;;;;;;;3.40;0.85;;;;;;;8.74;100.00;96595.81;5029092;28;20076;-69
2023/11/14 08:28:01;;;;;;;3.55;1.10;;;;;;;8.78;100.00;96572.09;5036312;28;20589;-69
2023/11/14 08:30:27;;;;;;;3.33;1.00;;;;;;;8.72;100.00;96555.19;5017047;28;20544;-68
2023/11/14 08:32:56;;;;;;;4.75;1.10;;;;;;;8.84;100.00;96564.41;5049431;28;20511;-70
2023/11/14 08:35:25;;;;;;;7.20;1.10;;;;;;;8.90;100.00;96552.84;5035424;28;22300;-69
2023/11/14 08:37:53;;;;;;;2.35;1.08;;;;;;;8.94;100.00;96561.88;5034756;28;20547;-68
2023/11/14 08:40:19;;;;;;;4.53;1.30;;;;;;;8.87;100.00;96566.41;5030759;28;20056;-69
2023/11/14 08:42:48;;;;;;;4.93;1.10;;;;;;;8.89;100.00;96562.16;5034899;28;20403;-68
2023/11/14 08:45:15;;;;;;;0.90;0.70;;;;;;;8.92;100.00;96564.19;5028458;28;20670;-69
2023/11/14 08:47:40;;;;;;;3.42;0.98;;;;;;;8.88;100.00;96559.81;5038645;28;20510;-69
2023/11/14 08:50:06;;;;;;;2.90;0.80;;;;;;;8.92;100.00;96545.06;5027967;28;20048;-68
2023/11/14 08:52:34;;;;;;;4.28;0.82;;;;;;;9.02;100.00;96537.44;5030063;28;20068;-69
2023/11/14 08:55:00;;;;;;;3.13;1.00;;;;;;;8.98;100.00;96540.91;5039253;28;20129;-70
2023/11/14 08:57:25;;;;;;;2.75;1.10;;;;;;;9.09;100.00;96551.25;5034532;28;20076;-69
2023/11/14 08:59:50;;;;;;;2.20;0.85;;;;;;;9.22;100.00;96554.59;5038566;28;20045;-70
2023/11/14 09:02:17;;;;;;;5.45;0.73;;;;;;;9.39;100.00;96562.38;5033510;28;20392;-70
2023/11/14 09:04:43;;;;;;;4.75;0.93;;;;;;;9.52;100.00;96541.13;5034998;28;20045;-70
2023/11/14 09:07:08;;;;;;;2.70;0.90;;;;;;;9.66;100.00;96537.84;5030032;28;20059;-70
2023/11/14 09:09:34;;;;;;;5.07;1.08;;;;;;;9.82;100.00;96530.31;5038366;28;20044;-70
2023/11/14 09:11:59;;;;;;;2.88;0.90;;;;;;;9.93;100.00;96536.72;5023577;28;20073;-70
2023/11/14 09:14:25;;;;;;;2.50;0.80;;;;;;;9.93;100.00;96544.94;5034401;28;20506;-70
2023/11/14 09:16:51;;;;;;;2.78;0.82;;;;;;;10.08;100.00;96534.22;5032253;28;20044;-70
2023/11/14 09:19:17;;;;;;;2.45;0.80;;;;;;;9.98;100.00;96537.59;5026661;28;20051;-69
2023/11/14 09:21:42;;;;;;;1.83;0.70;;;;;;;10.03;100.00;96534.53;5035896;28;20046;-69
2023/11/14 09:24:08;;;;;;;7.07;0.95;;;;;;;10.05;100.00;96524.03;5022980;28;20107;-69
2023/11/14 09:26:33;;;;;;;1.75;0.60;;;;;;;10.21;100.00;96537.53;5037245;28;20060;-69
2023/11/14 09:28:59;;;;;;;4.15;0.80;;;;;;;10.35;100.00;96542.47;5043779;28;20112;-69
2023/11/14 09:31:25;;;;;;;3.72;0.80;;;;;;;10.25;100.00;96530.19;5040028;28;20151;-69
2023/11/14 09:33:51;;;;;;;3.75;0.80;;;;;;;10.13;100.00;96544.88;5033916;28;20047;-69
2023/11/14 09:36:16;;;;;;;4.97;0.98;;;;;;;10.19;100.00;96537.13;5029529;28;20048;-69
2023/11/14 09:38:41;;;;;;;2.50;0.80;;;;;;;10.17;100.00;96528.50;5022432;28;20045;-70
2023/11/14 09:41:08;;;;;;;4.63;0.73;;;;;;;10.20;100.00;96534.03;5024410;28;20140;-70
2023/11/14 09:43:34;;;;;;;2.58;0.90;;;;;;;10.21;100.00;96510.97;5033756;28;20048;-69
2023/11/14 09:46:04;;;;;;;5.47;0.90;;;;;;;10.36;100.00;96486.59;5031795;28;20045;-70
2023/11/14 09:48:31;;;;;;;5.40;0.73;;;;;;;10.46;100.00;96481.25;5023744;28;20210;-70
2023/11/14 09:50:56;;;;;;;4.15;1.10;;;;;;;10.48;100.00;96465.25;5036217;28;20132;-70
2023/11/14 09:53:26;;;;;;;8.75;0.85;;;;;;;10.52;100.00;96462.53;5033506;28;20858;-70
2023/11/14 09:55:53;;;;;;;4.88;1.55;;;;;;;10.56;100.00;96449.69;5030270;28;20098;-70
2023/11/14 09:58:20;;;;;;;4.22;0.75;;;;;;;10.58;100.00;96439.13;5025998;28;20041;-69
2023/11/14 10:00:47;;;;;;;2.28;0.70;;;;;;;10.51;100.00;96439.03;5033092;28;20491;-69
2023/11/14 10:03:12;;;;;;;2.78;0.90;;;;;;;10.48;100.00;96451.53;5018654;28;20056;-69
2023/11/14 10:05:38;;;;;;;2.42;0.90;;;;;;;10.48;100.00;96459.75;5035841;28;20045;-69
2023/11/14 10:08:06;;;;;;;3.78;0.93;;;;;;;10.50;100.00;96478.56;5027079;28;20049;-70
2023/11/14 10:10:31;;;;;;;3.88;1.23;;;;;;;10.46;100.00;96489.47;5038302;28;20055;-70
2023/11/14 10:12:57;;;;;;;1.30;0.63;;;;;;;10.42;100.00;96480.41;5024748;28;20050;-69
2023/11/14 10:15:28;;;;;;;3.25;0.73;;;;;;;10.50;100.00;96473.09;5026360;28;20056;-69
2023/11/14 10:17:53;;;;;;;3.20;0.70;;;;;;;10.63;100.00;96457.97;5044140;28;20124;-69
2023/11/14 10:20:19;;;;;;;1.33;0.90;;;;;;;10.59;100.00;96470.03;5033310;28;20131;-70
2023/11/14 10:22:53;;;;;;;5.10;1.05;;;;;;;10.47;100.00;96474.59;5026520;28;20072;-69
2023/11/14 10:25:32;;;;;;;1.00;0.55;;;;;;;10.61;100.00;96465.00;5030218;28;20484;-70
2023/11/14 10:28:05;;;;;;;2.30;0.90;;;;;;;10.53;100.00;96458.63;5031887;28;20061;-69
2023/11/14 10:30:42;;;;;;;1.77;0.60;;;;;;;10.68;100.00;96441.22;5033780;28;20797;-69
2023/11/14 10:33:08;;;;;;;3.15;1.20;;;;;;;10.76;100.00;96441.31;5045012;28;20044;-68
2023/11/14 10:35:35;;;;;;;3.60;0.82;;;;;;;10.63;100.00;96427.84;5039259;28;20071;-70
2023/11/14 10:38:16;;;;;;;4.13;0.88;;;;;;;10.81;100.00;96435.50;5026347;28;20053;-70
2023/11/14 10:40:51;;;;;;;1.40;0.80;;;;;;;10.74;100.00;96457.31;5028467;28;20048;-69
2023/11/14 10:43:34;;;;;;;4.93;1.40;;;;;;;10.70;100.00;96465.50;5033283;28;20090;-69
2023/11/14 10:46:08;;;;;;;2.28;1.17;;;;;;;10.62;100.00;96470.09;5028494;28;20479;-70
2023/11/14 10:48:34;;;;;;;4.97;1.15;;;;;;;10.68;100.00;96451.41;5024361;28;20048;-69
2023/11/14 10:51:02;;;;;;;1.25;0.75;;;;;;;10.97;100.00;96435.28;5035407;28;20064;-69
2023/11/14 10:53:30;;;;;;;1.73;0.80;;;;;;;10.96;100.00;96439.94;5030422;28;20048;-69
2023/11/14 10:55:56;;;;;;;2.63;0.98;;;;;;;10.67;100.00;96436.13;5028491;28;20041;-69
2023/11/14 10:58:22;;;;;;;6.45;1.40;;;;;;;10.66;100.00;96435.34;5033869;28;20546;-70
2023/11/14 11:00:48;;;;;;;2.08;0.82;;;;;;;10.54;100.00;96430.09;5031913;28;20132;-70
2023/11/14 11:03:14;;;;;;;1.92;0.98;;;;;;;10.73;100.00;96434.59;5042154;28;20045;-71
2023/11/14 11:05:39;;;;;;;3.03;0.98;;;;;;;10.67;100.00;96428.69;5024208;28;20063;-69
2023/11/14 11:08:05;;;;;;;3.42;0.80;;;;;;;10.58;100.00;96441.88;5027237;28;20688;-70
2023/11/14 11:10:35;;;;;;;1.65;0.77;;;;;;;10.48;100.00;96439.81;5032164;28;20050;-69
2023/11/14 11:13:10;;;;;;;1.55;0.80;;;;;;;10.39;100.00;96463.91;5027769;28;20128;-70
2023/11/14 11:15:46;;;;;;;1.48;0.70;;;;;;;10.45;100.00;96444.06;5029225;28;20146;-69
2023/11/14 11:18:12;;;;;;;2.33;0.68;;;;;;;10.49;100.00;96455.84;5015303;28;20049;-69
2023/11/14 11:20:38;;;;;;;1.50;0.60;;;;;;;10.41;100.00;96453.41;5029718;28;20037;-69
2023/11/14 11:23:13;;;;;;;2.30;0.80;;;;;;;10.40;100.00;96432.66;5025102;28;20120;-69